Time;durP1;ratioP1;P1;durP2;ratioP2;P2;SDS_P1;SDS_P2;PMS_P1;PMS_P2;Temp;Humidity;BMP_temperature;BMP_pressure;BME280_temperature;BME280_humidity;BME280_pressure;Samples;Min_cycle;Max_cycle;Signal;HPM_P1;HPM_P2
2023/04/20 00:01:33;;;;;;;4.87;1.60;;;;;;;;;;5104994;27;95486;-60
2023/04/20 00:04:01;;;;;;;1.50;1.10;;;;;;;;;;5102989;27;95279;-60
2023/04/20 00:06:31;;;;;;;1.23;1.13;;;;;;;;;;5101627;27;92078;-60
2023/04/20 00:09:00;;;;;;;2.33;0.90;;;;;;;;;;5105589;27;92418;-60
2023/04/20 00:11:28;;;;;;;1.93;1.00;;;;;;;;;;5104864;27;93990;-60
2023/04/20 00:13:56;;;;;;;2.03;1.00;;;;;;;;;;5110092;27;93890;-60
2023/04/20 00:16:25;;;;;;;7.83;1.30;;;;;;;;;;5105618;27;92102;-60
2023/04/20 00:18:53;;;;;;;0.83;0.80;;;;;;;;;;5113429;27;91299;-60
2023/04/20 00:21:23;;;;;;;1.27;1.13;;;;;;;;;;5119010;27;94465;-59
2023/04/20 00:23:52;;;;;;;1.20;1.10;;;;;;;;;;5099800;27;94005;-60
2023/04/20 00:26:21;;;;;;;2.43;1.13;;;;;;;;;;5120311;27;93043;-60
2023/04/20 00:28:50;;;;;;;2.07;1.20;;;;;;;;;;5107626;27;91985;-59
2023/04/20 00:31:18;;;;;;;2.57;1.20;;;;;;;;;;5117186;27;93412;-59
2023/04/20 00:33:47;;;;;;;1.30;0.80;;;;;;;;;;5105091;27;93863;-62
2023/04/20 00:36:16;;;;;;;1.37;0.93;;;;;;;;;;5089946;27;92138;-59
2023/04/20 00:38:44;;;;;;;0.90;0.90;;;;;;;;;;5102145;27;92028;-62
2023/04/20 00:41:13;;;;;;;2.50;1.10;;;;;;;;;;5101391;27;94048;-61
2023/04/20 00:43:50;;;;;;;3.23;1.47;;;;;;;;;;5100591;27;93799;-61
2023/04/20 00:46:18;;;;;;;1.93;1.20;;;;;;;;;;5101869;27;91875;-61
2023/04/20 00:48:46;;;;;;;0.80;0.80;;;;;;;;;;5102180;27;92078;-61
2023/04/20 00:51:15;;;;;;;0.87;0.87;;;;;;;;;;5101047;27;95174;-61
2023/04/20 00:53:43;;;;;;;6.57;0.87;;;;;;;;;;5101475;27;94628;-61
2023/04/20 00:56:13;;;;;;;0.47;0.47;;;;;;;;;;5089615;27;92062;-61
2023/04/20 00:58:42;;;;;;;0.83;0.80;;;;;;;;;;5097953;27;91999;-61
2023/04/20 01:01:10;;;;;;;0.80;0.80;;;;;;;;;;5093712;27;94201;-61
2023/04/20 01:03:39;;;;;;;1.67;1.20;;;;;;;;;;5101091;27;93889;-61
2023/04/20 01:06:07;;;;;;;1.87;0.80;;;;;;;;;;5095966;27;92186;-61
2023/04/20 01:08:36;;;;;;;2.40;1.03;;;;;;;;;;5110943;27;91285;-61
2023/04/20 01:11:04;;;;;;;1.43;0.93;;;;;;;;;;5109088;27;94179;-61
2023/04/20 01:13:34;;;;;;;1.00;0.53;;;;;;;;;;5100057;27;94019;-61
2023/04/20 01:16:02;;;;;;;0.70;0.70;;;;;;;;;;5089576;27;92771;-61
2023/04/20 01:18:37;;;;;;;0.80;0.80;;;;;;;;;;5116577;27;91946;-61
2023/04/20 01:21:06;;;;;;;1.13;1.03;;;;;;;;;;5106759;27;94239;-61
2023/04/20 01:23:36;;;;;;;0.50;0.50;;;;;;;;;;5112163;27;94662;-61
2023/04/20 01:26:06;;;;;;;0.37;0.37;;;;;;;;;;5107265;27;92723;-61
2023/04/20 01:28:34;;;;;;;0.47;0.47;;;;;;;;;;5119729;27;92118;-61
2023/04/20 01:31:03;;;;;;;1.30;1.00;;;;;;;;;;5093296;27;94223;-61
2023/04/20 01:33:31;;;;;;;0.90;0.80;;;;;;;;;;5101346;27;94057;-61
2023/04/20 01:35:59;;;;;;;1.00;0.90;;;;;;;;;;5089590;27;92126;-61
2023/04/20 01:38:29;;;;;;;0.80;0.80;;;;;;;;;;5101396;27;92118;-61
2023/04/20 01:40:59;;;;;;;3.30;1.17;;;;;;;;;;5089636;27;94170;-61
2023/04/20 01:43:27;;;;;;;1.27;0.90;;;;;;;;;;5106026;27;94721;-61
2023/04/20 01:45:55;;;;;;;0.93;0.70;;;;;;;;;;5109331;27;91970;-61
2023/04/20 01:48:24;;;;;;;0.47;0.47;;;;;;;;;;5093584;27;92072;-61
2023/04/20 01:50:52;;;;;;;0.77;0.70;;;;;;;;;;5104596;27;93739;-61
2023/04/20 01:53:20;;;;;;;0.73;0.73;;;;;;;;;;5104026;27;92506;-61
2023/04/20 01:55:48;;;;;;;0.57;0.57;;;;;;;;;;5098353;27;92090;-61
2023/04/20 01:58:18;;;;;;;1.40;1.13;;;;;;;;;;5110210;27;91889;-61
2023/04/20 02:00:46;;;;;;;4.47;0.87;;;;;;;;;;5106888;27;94271;-61
2023/04/20 02:03:15;;;;;;;0.83;0.83;;;;;;;;;;5097163;27;94011;-61
2023/04/20 02:05:43;;;;;;;0.73;0.73;;;;;;;;;;5108553;27;93008;-61
2023/04/20 02:08:11;;;;;;;1.30;1.03;;;;;;;;;;5100031;27;92220;-61
2023/04/20 02:10:40;;;;;;;0.70;0.70;;;;;;;;;;5110482;27;94146;-61
2023/04/20 02:13:08;;;;;;;0.57;0.57;;;;;;;;;;5100429;27;93970;-61
2023/04/20 02:15:38;;;;;;;1.00;0.90;;;;;;;;;;5100486;27;91982;-61
2023/04/20 02:18:06;;;;;;;0.83;0.83;;;;;;;;;;5112689;27;92050;-61
2023/04/20 02:20:35;;;;;;;0.70;0.70;;;;;;;;;;5102476;27;94326;-61
2023/04/20 02:23:03;;;;;;;0.70;0.70;;;;;;;;;;5104553;27;94040;-61
2023/04/20 02:25:32;;;;;;;0.87;0.83;;;;;;;;;;5096373;27;92001;-61
2023/04/20 02:28:00;;;;;;;0.70;0.70;;;;;;;;;;5115643;27;92117;-61
2023/04/20 02:30:28;;;;;;;0.47;0.43;;;;;;;;;;5106498;27;95059;-61
2023/04/20 02:32:58;;;;;;;0.57;0.57;;;;;;;;;;5103853;27;94449;-61
2023/04/20 02:35:26;;;;;;;1.77;0.70;;;;;;;;;;5108512;27;91839;-61
2023/04/20 02:37:55;;;;;;;1.43;0.60;;;;;;;;;;5100383;27;92069;-61
2023/04/20 02:40:24;;;;;;;0.97;0.87;;;;;;;;;;5099871;27;93784;-61
2023/04/20 02:42:52;;;;;;;0.40;0.40;;;;;;;;;;5100173;27;93565;-61
2023/04/20 02:45:21;;;;;;;0.57;0.57;;;;;;;;;;5085732;27;92101;-61
2023/04/20 02:47:49;;;;;;;0.90;0.90;;;;;;;;;;5104195;27;91284;-61
2023/04/20 02:50:19;;;;;;;0.63;0.63;;;;;;;;;;5100768;27;96253;-61
2023/04/20 02:52:47;;;;;;;1.00;0.67;;;;;;;;;;5095474;27;93692;-61
2023/04/20 02:55:16;;;;;;;0.43;0.43;;;;;;;;;;5082782;27;93005;-61
2023/04/20 02:57:44;;;;;;;0.60;0.60;;;;;;;;;;5083030;27;92106;-61
2023/04/20 03:00:13;;;;;;;0.53;0.53;;;;;;;;;;5082329;27;94083;-61
2023/04/20 03:02:41;;;;;;;0.40;0.40;;;;;;;;;;5082690;27;93856;-61
2023/04/20 03:05:11;;;;;;;0.70;0.60;;;;;;;;;;5083032;27;92048;-61
2023/04/20 03:07:40;;;;;;;0.57;0.50;;;;;;;;;;5117686;27;92087;-61
2023/04/20 03:10:09;;;;;;;0.50;0.50;;;;;;;;;;5090750;27;93934;-61
2023/04/20 03:12:37;;;;;;;0.77;0.73;;;;;;;;;;5122630;27;94012;-61
2023/04/20 03:15:06;;;;;;;0.63;0.63;;;;;;;;;;5103041;27;92045;-61
2023/04/20 03:17:35;;;;;;;0.40;0.40;;;;;;;;;;5107689;27;92418;-61
2023/04/20 03:20:04;;;;;;;4.17;0.90;;;;;;;;;;5104652;27;95129;-61
2023/04/20 03:22:32;;;;;;;1.60;0.83;;;;;;;;;;5115946;27;94648;-61
2023/04/20 03:25:02;;;;;;;0.50;0.50;;;;;;;;;;5101653;27;92078;-61
2023/04/20 03:27:30;;;;;;;1.23;0.50;;;;;;;;;;5113182;27;92088;-61
2023/04/20 03:29:59;;;;;;;0.53;0.53;;;;;;;;;;5110038;27;94222;-61
2023/04/20 03:32:28;;;;;;;0.70;0.47;;;;;;;;;;5107987;27;92479;-61
2023/04/20 03:34:59;;;;;;;0.83;0.73;;;;;;;;;;5105879;27;92044;-61
2023/04/20 03:37:28;;;;;;;0.90;0.43;;;;;;;;;;5122673;27;91827;-61
2023/04/20 03:39:56;;;;;;;0.60;0.60;;;;;;;;;;5099020;27;94117;-61
2023/04/20 03:42:25;;;;;;;0.80;0.70;;;;;;;;;;5095272;27;92776;-61
2023/04/20 03:44:54;;;;;;;0.83;0.83;;;;;;;;;;5097419;27;93168;-61
2023/04/20 03:47:22;;;;;;;0.40;0.40;;;;;;;;;;5104101;27;92008;-61
2023/04/20 03:49:50;;;;;;;0.50;0.50;;;;;;;;;;5108521;27;94247;-61
2023/04/20 03:52:19;;;;;;;0.50;0.50;;;;;;;;;;5102460;27;93831;-61
2023/04/20 03:54:47;;;;;;;0.67;0.67;;;;;;;;;;5085860;27;93416;-61
2023/04/20 03:57:15;;;;;;;1.03;0.93;;;;;;;;;;5080590;27;92255;-61
2023/04/20 03:59:45;;;;;;;0.77;0.77;;;;;;;;;;5089026;27;94414;-61
2023/04/20 04:02:13;;;;;;;0.60;0.50;;;;;;;;;;5101898;27;93866;-61
2023/04/20 04:04:42;;;;;;;0.73;0.60;;;;;;;;;;5109426;27;92139;-61
2023/04/20 04:07:10;;;;;;;4.23;0.60;;;;;;;;;;5092389;27;92022;-61
2023/04/20 04:09:39;;;;;;;0.97;0.90;;;;;;;;;;5096938;27;94447;-61
2023/04/20 04:12:07;;;;;;;0.43;0.43;;;;;;;;;;5113458;27;94823;-61
2023/04/20 04:14:36;;;;;;;0.97;0.73;;;;;;;;;;5086352;27;91846;-61
2023/04/20 04:17:06;;;;;;;0.30;0.30;;;;;;;;;;5081701;27;92841;-61
2023/04/20 04:19:35;;;;;;;0.87;0.60;;;;;;;;;;5103855;27;94324;-61
2023/04/20 04:22:03;;;;;;;0.90;0.50;;;;;;;;;;5100666;27;93700;-61
2023/04/20 04:24:32;;;;;;;0.37;0.30;;;;;;;;;;5112761;27;92054;-61
2023/04/20 04:27:04;;;;;;;0.53;0.53;;;;;;;;;;5081573;27;91268;-61
2023/04/20 04:29:34;;;;;;;0.93;0.83;;;;;;;;;;5080991;27;94315;-61
2023/04/20 04:32:04;;;;;;;0.50;0.50;;;;;;;;;;5109506;27;93993;-61
2023/04/20 04:34:34;;;;;;;0.37;0.37;;;;;;;;;;5107449;27;92977;-61
2023/04/20 04:37:02;;;;;;;0.70;0.70;;;;;;;;;;5108567;27;92054;-59
2023/04/20 04:39:30;;;;;;;0.50;0.50;;;;;;;;;;5100164;27;93400;-59
2023/04/20 04:41:59;;;;;;;0.50;0.50;;;;;;;;;;5102735;27;92163;-61
2023/04/20 04:44:30;;;;;;;0.77;0.40;;;;;;;;;;5113974;27;92007;-59
2023/04/20 04:46:58;;;;;;;0.30;0.30;;;;;;;;;;5121816;27;91986;-60
2023/04/20 04:49:28;;;;;;;0.40;0.40;;;;;;;;;;5095009;27;94302;-58
2023/04/20 04:51:57;;;;;;;0.33;0.33;;;;;;;;;;5092151;27;92751;-58
2023/04/20 04:54:25;;;;;;;0.50;0.40;;;;;;;;;;5098504;27;92077;-58
2023/04/20 04:56:54;;;;;;;0.40;0.40;;;;;;;;;;5103002;27;92255;-58
2023/04/20 04:59:22;;;;;;;0.67;0.60;;;;;;;;;;5109243;27;95064;-58
2023/04/20 05:01:50;;;;;;;0.60;0.60;;;;;;;;;;5122532;27;94784;-58
2023/04/20 05:04:19;;;;;;;0.67;0.67;;;;;;;;;;5112639;27;93446;-58
2023/04/20 05:06:47;;;;;;;1.03;0.60;;;;;;;;;;5102486;27;92077;-58
2023/04/20 05:09:17;;;;;;;0.40;0.40;;;;;;;;;;5103503;27;94265;-58
2023/04/20 05:11:45;;;;;;;0.43;0.43;;;;;;;;;;5101104;27;93681;-58
2023/04/20 05:14:14;;;;;;;0.50;0.50;;;;;;;;;;5109836;27;92110;-58
2023/04/20 05:16:42;;;;;;;0.83;0.50;;;;;;;;;;5115307;27;91305;-58
2023/04/20 05:19:11;;;;;;;0.50;0.33;;;;;;;;;;5104328;27;94403;-59
2023/04/20 05:21:39;;;;;;;0.87;0.60;;;;;;;;;;5119721;27;93846;-58
2023/04/20 05:24:07;;;;;;;0.60;0.60;;;;;;;;;;5119238;27;92935;-58
2023/04/20 05:26:37;;;;;;;0.47;0.47;;;;;;;;;;5098068;27;92174;-58
2023/04/20 05:29:05;;;;;;;0.40;0.40;;;;;;;;;;5100302;27;93969;-58
2023/04/20 05:31:33;;;;;;;0.50;0.50;;;;;;;;;;5103673;27;93995;-58
2023/04/20 05:34:02;;;;;;;0.40;0.40;;;;;;;;;;5096031;27;91982;-59
2023/04/20 05:36:32;;;;;;;2.07;0.80;;;;;;;;;;5081258;27;93532;-58
2023/04/20 05:39:00;;;;;;;1.20;0.47;;;;;;;;;;5089357;27;94322;-59
2023/04/20 05:41:28;;;;;;;0.20;0.20;;;;;;;;;;5109378;27;93910;-58
2023/04/20 05:43:58;;;;;;;0.40;0.40;;;;;;;;;;5086140;27;92084;-58
2023/04/20 05:46:28;;;;;;;1.50;0.90;;;;;;;;;;5096457;27;92132;-58
2023/04/20 05:48:56;;;;;;;1.73;0.50;;;;;;;;;;5090212;27;94026;-58
2023/04/20 05:51:27;;;;;;;0.50;0.50;;;;;;;;;;5095908;27;95146;-58
2023/04/20 05:53:56;;;;;;;1.97;0.53;;;;;;;;;;5103294;27;92026;-58
2023/04/20 05:56:24;;;;;;;0.80;0.80;;;;;;;;;;5101931;27;92300;-58
2023/04/20 05:58:52;;;;;;;0.83;0.60;;;;;;;;;;5098035;27;94381;-58
2023/04/20 06:01:22;;;;;;;0.70;0.50;;;;;;;;;;5116290;27;93912;-58
2023/04/20 06:03:51;;;;;;;0.30;0.30;;;;;;;;;;5100118;27;93337;-58
2023/04/20 06:06:19;;;;;;;0.30;0.30;;;;;;;;;;5090683;27;91215;-58
2023/04/20 06:08:49;;;;;;;2.83;1.10;;;;;;;;;;5091620;27;94286;-58
2023/04/20 06:11:17;;;;;;;1.13;0.50;;;;;;;;;;5096980;27;92932;-58
2023/04/20 06:13:46;;;;;;;0.40;0.40;;;;;;;;;;5081521;27;93013;-58
2023/04/20 06:16:14;;;;;;;0.80;0.60;;;;;;;;;;5108702;27;92090;-58
2023/04/20 06:18:44;;;;;;;0.57;0.50;;;;;;;;;;5108212;27;94318;-58
2023/04/20 06:21:12;;;;;;;0.83;0.60;;;;;;;;;;5108777;27;93895;-58
2023/04/20 06:23:41;;;;;;;0.30;0.30;;;;;;;;;;5105517;27;92023;-57
2023/04/20 06:26:09;;;;;;;1.00;0.43;;;;;;;;;;5116338;27;92042;-58
2023/04/20 06:28:38;;;;;;;0.60;0.60;;;;;;;;;;5120967;27;94211;-58
2023/04/20 06:31:06;;;;;;;0.60;0.60;;;;;;;;;;5107944;27;94174;-58
2023/04/20 06:33:34;;;;;;;0.57;0.43;;;;;;;;;;5103937;27;91875;-58
2023/04/20 06:36:06;;;;;;;3.00;0.70;;;;;;;;;;5104341;27;92227;-58
2023/04/20 06:38:35;;;;;;;0.73;0.50;;;;;;;;;;5104264;27;95204;-58
2023/04/20 06:41:03;;;;;;;0.60;0.60;;;;;;;;;;5114399;27;94760;-58
2023/04/20 06:43:31;;;;;;;0.40;0.40;;;;;;;;;;5122397;27;91992;-58
2023/04/20 06:46:00;;;;;;;0.47;0.33;;;;;;;;;;5103110;27;92542;-58
2023/04/20 06:48:28;;;;;;;0.77;0.77;;;;;;;;;;5107013;27;94148;-59
2023/04/20 06:51:00;;;;;;;1.03;0.90;;;;;;;;;;5096122;27;94064;-59
2023/04/20 06:53:30;;;;;;;0.50;0.47;;;;;;;;;;5098170;27;91988;-59
2023/04/20 06:55:58;;;;;;;0.50;0.33;;;;;;;;;;5099796;27;91267;-59
2023/04/20 06:58:27;;;;;;;0.43;0.43;;;;;;;;;;5102140;27;94489;-59
2023/04/20 07:00:55;;;;;;;0.53;0.53;;;;;;;;;;5093104;27;94307;-59
2023/04/20 07:03:24;;;;;;;1.70;1.00;;;;;;;;;;5105932;27;93052;-60
2023/04/20 07:05:52;;;;;;;1.13;1.03;;;;;;;;;;5099863;27;93716;-60
2023/04/20 07:08:21;;;;;;;1.33;0.63;;;;;;;;;;5094275;27;94331;-60
2023/04/20 07:10:51;;;;;;;0.60;0.60;;;;;;;;;;5105480;27;93907;-60
2023/04/20 07:13:19;;;;;;;0.40;0.40;;;;;;;;;;5087216;27;92008;-60
2023/04/20 07:15:47;;;;;;;0.50;0.50;;;;;;;;;;5097756;27;93255;-59
2023/04/20 07:18:15;;;;;;;2.67;0.97;;;;;;;;;;5100486;27;93220;-59
2023/04/20 07:20:44;;;;;;;1.00;0.80;;;;;;;;;;5090616;27;93761;-60
2023/04/20 07:23:12;;;;;;;0.60;0.50;;;;;;;;;;5094874;27;91896;-60
2023/04/20 07:25:40;;;;;;;0.67;0.67;;;;;;;;;;5099877;27;92163;-59
2023/04/20 07:28:10;;;;;;;1.10;0.57;;;;;;;;;;5086273;27;94068;-60
2023/04/20 07:30:38;;;;;;;1.70;0.67;;;;;;;;;;5097281;27;94970;-59
2023/04/20 07:33:07;;;;;;;0.73;0.60;;;;;;;;;;5106987;27;92121;-59
2023/04/20 07:35:35;;;;;;;3.43;0.90;;;;;;;;;;5106868;27;93513;-61
2023/04/20 07:38:04;;;;;;;0.60;0.60;;;;;;;;;;5096969;27;94650;-63
2023/04/20 07:40:32;;;;;;;0.50;0.50;;;;;;;;;;5099483;27;93866;-64
2023/04/20 07:43:00;;;;;;;2.23;0.73;;;;;;;;;;5102494;27;92043;-63
2023/04/20 07:45:30;;;;;;;0.43;0.43;;;;;;;;;;5092689;27;91328;-64
2023/04/20 07:48:00;;;;;;;0.80;0.67;;;;;;;;;;5081649;27;94174;-64
2023/04/20 07:50:28;;;;;;;1.87;1.00;;;;;;;;;;5096454;27;93958;-64
2023/04/20 07:52:57;;;;;;;0.70;0.60;;;;;;;;;;5086122;27;92999;-64
2023/04/20 07:55:25;;;;;;;0.50;0.50;;;;;;;;;;5083271;27;92111;-64
2023/04/20 07:57:53;;;;;;;0.80;0.80;;;;;;;;;;5099634;27;94298;-64
2023/04/20 08:00:21;;;;;;;0.70;0.70;;;;;;;;;;5100768;27;94214;-64
2023/04/20 08:02:51;;;;;;;0.60;0.60;;;;;;;;;;5083587;27;91765;-63
2023/04/20 08:05:20;;;;;;;0.60;0.60;;;;;;;;;;5091105;27;92069;-64
2023/04/20 08:07:48;;;;;;;0.63;0.63;;;;;;;;;;5094490;27;94126;-63
2023/04/20 08:10:17;;;;;;;2.20;0.70;;;;;;;;;;5082773;27;93914;-63
2023/04/20 08:12:45;;;;;;;0.97;0.80;;;;;;;;;;5082223;27;92084;-63
2023/04/20 08:15:14;;;;;;;1.00;0.87;;;;;;;;;;5082772;27;92010;-63
2023/04/20 08:17:42;;;;;;;1.00;0.60;;;;;;;;;;5080863;27;95246;-64
2023/04/20 08:20:12;;;;;;;2.63;0.93;;;;;;;;;;5083093;27;94756;-64
2023/04/20 08:22:40;;;;;;;0.60;0.60;;;;;;;;;;5087312;27;91771;-64
2023/04/20 08:25:09;;;;;;;2.20;0.77;;;;;;;;;;5101466;27;92082;-64
2023/04/20 08:27:37;;;;;;;0.60;0.53;;;;;;;;;;5090899;27;94256;-63
2023/04/20 08:30:06;;;;;;;0.50;0.50;;;;;;;;;;5082646;27;93833;-64
2023/04/20 08:32:35;;;;;;;0.50;0.50;;;;;;;;;;5098703;27;92136;-64
2023/04/20 08:35:04;;;;;;;1.57;0.83;;;;;;;;;;5097845;27;91288;-64
2023/04/20 08:37:34;;;;;;;0.80;0.80;;;;;;;;;;5099747;27;93553;-64
2023/04/20 08:40:03;;;;;;;1.70;0.73;;;;;;;;;;5099796;27;93773;-64
2023/04/20 08:42:31;;;;;;;0.40;0.40;;;;;;;;;;5100628;27;93199;-64
2023/04/20 08:45:00;;;;;;;1.30;0.50;;;;;;;;;;5100970;27;91969;-63
2023/04/20 08:47:28;;;;;;;0.67;0.67;;;;;;;;;;5101120;27;94101;-63
2023/04/20 08:49:57;;;;;;;0.80;0.40;;;;;;;;;;5100644;27;93936;-63
2023/04/20 08:52:25;;;;;;;0.67;0.67;;;;;;;;;;5101296;27;92051;-63
2023/04/20 08:54:55;;;;;;;0.50;0.50;;;;;;;;;;5102186;27;92010;-63
2023/04/20 08:57:26;;;;;;;1.07;0.50;;;;;;;;;;5101721;27;96934;-64
2023/04/20 08:59:54;;;;;;;0.60;0.40;;;;;;;;;;5101686;27;93970;-64
2023/04/20 09:02:22;;;;;;;1.97;0.70;;;;;;;;;;5101742;27;92005;-64
2023/04/20 09:05:00;;;;;;;0.30;0.30;;;;;;;;;;5102699;27;92038;-63
2023/04/20 09:07:29;;;;;;;0.60;0.60;;;;;;;;;;5101582;27;94868;-63
2023/04/20 09:09:59;;;;;;;0.60;0.60;;;;;;;;;;5101192;27;95151;-64
2023/04/20 09:12:27;;;;;;;0.97;0.63;;;;;;;;;;5101560;27;91848;-63
2023/04/20 09:14:56;;;;;;;0.87;0.33;;;;;;;;;;5101726;27;91922;-63
2023/04/20 09:17:33;;;;;;;0.50;0.50;;;;;;;;;;5100956;27;94176;-63
2023/04/20 09:20:03;;;;;;;0.67;0.67;;;;;;;;;;5100445;27;94356;-64
2023/04/20 09:22:32;;;;;;;0.87;0.70;;;;;;;;;;5100968;27;92110;-63
2023/04/20 09:25:02;;;;;;;1.03;0.60;;;;;;;;;;5101741;27;91336;-63
2023/04/20 09:27:30;;;;;;;0.60;0.60;;;;;;;;;;5101166;27;94176;-64
2023/04/20 09:29:59;;;;;;;0.60;0.60;;;;;;;;;;5100560;27;92742;-64
2023/04/20 09:32:28;;;;;;;0.40;0.40;;;;;;;;;;5100624;27;93183;-64
2023/04/20 09:34:56;;;;;;;0.77;0.50;;;;;;;;;;5100847;27;92087;-64
2023/04/20 09:37:25;;;;;;;1.33;0.70;;;;;;;;;;5100572;27;94159;-64
2023/04/20 09:39:53;;;;;;;0.53;0.40;;;;;;;;;;5100877;27;94101;-64
2023/04/20 09:42:23;;;;;;;0.50;0.50;;;;;;;;;;5101240;27;91865;-64
2023/04/20 09:44:51;;;;;;;1.47;0.67;;;;;;;;;;5100995;27;92087;-63
2023/04/20 09:47:19;;;;;;;0.37;0.37;;;;;;;;;;5100627;27;94177;-64
2023/04/20 09:49:48;;;;;;;0.73;0.50;;;;;;;;;;5101189;27;93823;-63
2023/04/20 09:52:17;;;;;;;0.67;0.53;;;;;;;;;;5100345;27;91971;-64
2023/04/20 09:54:46;;;;;;;0.50;0.50;;;;;;;;;;5100375;27;91893;-63
2023/04/20 09:57:14;;;;;;;2.03;0.70;;;;;;;;;;5099196;27;95043;-64
2023/04/20 09:59:44;;;;;;;0.53;0.53;;;;;;;;;;5100362;27;94779;-64
2023/04/20 10:02:12;;;;;;;0.70;0.70;;;;;;;;;;5100710;27;92139;-64
2023/04/20 10:04:51;;;;;;;0.47;0.47;;;;;;;;;;5100721;27;92060;-63
2023/04/20 10:07:24;;;;;;;0.57;0.57;;;;;;;;;;5099920;27;94092;-63
2023/04/20 10:10:02;;;;;;;0.63;0.63;;;;;;;;;;5100255;27;93652;-64
2023/04/20 10:12:31;;;;;;;1.20;0.50;;;;;;;;;;5100404;27;92159;-64
2023/04/20 10:15:01;;;;;;;0.73;0.63;;;;;;;;;;5100997;27;91289;-63
2023/04/20 10:17:30;;;;;;;0.50;0.50;;;;;;;;;;5099645;27;94107;-63
2023/04/20 10:19:58;;;;;;;2.67;0.60;;;;;;;;;;5100277;27;93816;-63
2023/04/20 10:22:29;;;;;;;3.40;0.77;;;;;;;;;;5100017;27;92869;-63
2023/04/20 10:24:57;;;;;;;0.70;0.70;;;;;;;;;;5100258;27;91975;-64
2023/04/20 10:27:26;;;;;;;1.20;0.67;;;;;;;;;;5099973;27;94214;-64
2023/04/20 10:29:54;;;;;;;0.70;0.70;;;;;;;;;;5099998;27;94058;-64
2023/04/20 10:32:24;;;;;;;0.73;0.50;;;;;;;;;;5100425;27;91971;-64
2023/04/20 10:35:02;;;;;;;0.47;0.47;;;;;;;;;;5100055;27;92059;-64
2023/04/20 10:37:31;;;;;;;3.43;0.70;;;;;;;;;;5099445;27;94195;-63
2023/04/20 10:39:59;;;;;;;1.00;0.90;;;;;;;;;;5099788;27;93909;-63
2023/04/20 10:42:28;;;;;;;0.73;0.70;;;;;;;;;;5099839;27;92063;-63
2023/04/20 10:44:56;;;;;;;0.60;0.60;;;;;;;;;;5098861;27;92090;-63
2023/04/20 10:47:29;;;;;;;0.40;0.40;;;;;;;;;;5097316;27;95021;-63
2023/04/20 10:50:06;;;;;;;0.47;0.47;;;;;;;;;;5098279;27;95082;-63
2023/04/20 10:52:35;;;;;;;0.33;0.33;;;;;;;;;;5098083;27;92272;-63
2023/04/20 10:55:03;;;;;;;1.37;0.60;;;;;;;;;;5099424;27;92196;-63
2023/04/20 10:57:32;;;;;;;0.53;0.53;;;;;;;;;;5098131;27;94459;-64
2023/04/20 11:00:00;;;;;;;0.63;0.60;;;;;;;;;;5099407;27;92087;-63
2023/04/20 11:02:30;;;;;;;1.40;1.10;;;;;;;;;;5099729;27;91950;-63
2023/04/20 11:05:00;;;;;;;0.87;0.63;;;;;;;;;;5102310;27;91185;-63
2023/04/20 11:07:29;;;;;;;0.40;0.40;;;;;;;;;;5103295;27;94284;-63
2023/04/20 11:09:57;;;;;;;0.80;0.80;;;;;;;;;;5102740;27;93948;-63
2023/04/20 11:12:25;;;;;;;0.70;0.70;;;;;;;;;;5103446;27;92779;-64
2023/04/20 11:14:54;;;;;;;0.63;0.53;;;;;;;;;;5103029;27;92061;-63
2023/04/20 11:17:32;;;;;;;0.50;0.50;;;;;;;;;;5103106;27;94125;-63
2023/04/20 11:20:05;;;;;;;3.47;0.50;;;;;;;;;;5102874;27;93718;-63
2023/04/20 11:22:33;;;;;;;0.43;0.43;;;;;;;;;;5103344;27;91774;-64
2023/04/20 11:25:05;;;;;;;1.27;0.93;;;;;;;;;;5102963;27;91919;-63
2023/04/20 11:27:34;;;;;;;0.60;0.60;;;;;;;;;;5102637;27;94351;-64
2023/04/20 11:30:04;;;;;;;0.50;0.50;;;;;;;;;;5102947;27;93863;-64
2023/04/20 11:32:34;;;;;;;0.40;0.40;;;;;;;;;;5103281;27;92111;-64
2023/04/20 11:35:04;;;;;;;0.60;0.60;;;;;;;;;;5102898;27;92129;-64
2023/04/20 11:37:34;;;;;;;0.77;0.50;;;;;;;;;;5102462;27;95152;-64
2023/04/20 11:40:04;;;;;;;1.57;0.60;;;;;;;;;;5102632;27;93791;-63
2023/04/20 11:42:32;;;;;;;0.47;0.47;;;;;;;;;;5103077;27;92148;-63
2023/04/20 11:45:01;;;;;;;1.07;0.50;;;;;;;;;;5102716;27;92078;-63
2023/04/20 11:47:29;;;;;;;0.90;0.90;;;;;;;;;;5102582;27;94081;-63
2023/04/20 11:49:59;;;;;;;0.63;0.63;;;;;;;;;;5102207;27;94028;-63
2023/04/20 11:52:27;;;;;;;0.50;0.50;;;;;;;;;;5102478;27;92138;-63
2023/04/20 11:54:56;;;;;;;0.47;0.40;;;;;;;;;;5102865;27;91340;-63
2023/04/20 11:57:24;;;;;;;1.47;0.40;;;;;;;;;;5101748;27;94093;-63
2023/04/20 11:59:52;;;;;;;0.50;0.47;;;;;;;;;;5102453;27;94106;-63
2023/04/20 12:02:21;;;;;;;0.60;0.50;;;;;;;;;;5102044;27;92941;-64
2023/04/20 12:04:50;;;;;;;0.73;0.73;;;;;;;;;;5102366;27;92088;-64
2023/04/20 12:07:19;;;;;;;1.77;0.60;;;;;;;;;;5101811;27;93508;-64
2023/04/20 12:09:48;;;;;;;0.60;0.50;;;;;;;;;;5102342;27;93638;-64
2023/04/20 12:12:16;;;;;;;1.47;0.70;;;;;;;;;;5102479;27;92050;-64
2023/04/20 12:14:44;;;;;;;0.40;0.40;;;;;;;;;;5101565;27;92784;-63
2023/04/20 12:17:13;;;;;;;0.60;0.50;;;;;;;;;;5101103;27;93142;-63
2023/04/20 12:19:41;;;;;;;2.80;0.77;;;;;;;;;;5102224;27;92680;-64
2023/04/20 12:22:09;;;;;;;0.50;0.50;;;;;;;;;;5102362;27;91970;-64
2023/04/20 12:24:39;;;;;;;0.60;0.60;;;;;;;;;;5102524;27;92098;-63
2023/04/20 12:27:07;;;;;;;0.40;0.40;;;;;;;;;;5101517;27;94897;-64
2023/04/20 12:29:35;;;;;;;0.80;0.80;;;;;;;;;;5101993;27;95996;-63
2023/04/20 12:32:04;;;;;;;0.50;0.50;;;;;;;;;;5101451;27;91941;-63
2023/04/20 12:34:32;;;;;;;0.60;0.60;;;;;;;;;;5102372;27;91896;-63
2023/04/20 12:37:01;;;;;;;0.70;0.70;;;;;;;;;;5101733;27;93079;-63
2023/04/20 12:39:29;;;;;;;1.60;0.47;;;;;;;;;;5101643;27;93722;-63
2023/04/20 12:41:59;;;;;;;0.60;0.60;;;;;;;;;;5102056;27;91931;-64
2023/04/20 12:44:27;;;;;;;0.60;0.60;;;;;;;;;;5101272;27;91219;-64
2023/04/20 12:46:55;;;;;;;0.70;0.70;;;;;;;;;;5101189;27;94155;-64
2023/04/20 12:49:24;;;;;;;0.77;0.40;;;;;;;;;;5101616;27;93950;-64
2023/04/20 12:51:52;;;;;;;0.70;0.70;;;;;;;;;;5101699;27;92888;-64
2023/04/20 12:54:20;;;;;;;2.10;0.83;;;;;;;;;;5101965;27;91965;-64
2023/04/20 12:56:48;;;;;;;1.33;0.87;;;;;;;;;;5101292;27;94524;-64
2023/04/20 12:59:18;;;;;;;0.97;0.93;;;;;;;;;;5101665;27;93860;-64
2023/04/20 13:01:46;;;;;;;0.70;0.60;;;;;;;;;;5101836;27;92036;-64
2023/04/20 13:04:15;;;;;;;0.93;0.70;;;;;;;;;;5101831;27;91965;-64
2023/04/20 13:06:44;;;;;;;0.50;0.50;;;;;;;;;;5101401;27;94167;-63
2023/04/20 13:09:12;;;;;;;1.00;0.87;;;;;;;;;;5102598;27;96589;-64
2023/04/20 13:11:41;;;;;;;0.80;0.80;;;;;;;;;;5101355;27;92094;-63
2023/04/20 13:14:09;;;;;;;2.20;0.57;;;;;;;;;;5101297;27;92029;-63
2023/04/20 13:16:39;;;;;;;0.73;0.70;;;;;;;;;;5100530;27;98101;-63
2023/04/20 13:19:07;;;;;;;0.70;0.70;;;;;;;;;;5100849;27;94779;-63
2023/04/20 13:21:35;;;;;;;0.50;0.50;;;;;;;;;;5101655;27;92040;-63
2023/04/20 13:24:04;;;;;;;0.97;0.60;;;;;;;;;;5101163;27;92033;-63
2023/04/20 13:26:32;;;;;;;0.47;0.47;;;;;;;;;;5100816;27;93980;-62
2023/04/20 13:29:01;;;;;;;0.50;0.50;;;;;;;;;;5100411;27;93787;-64
2023/04/20 13:31:29;;;;;;;0.43;0.43;;;;;;;;;;5101125;27;92027;-64
2023/04/20 13:33:59;;;;;;;1.77;0.70;;;;;;;;;;5101573;27;91319;-64
2023/04/20 13:36:28;;;;;;;0.83;0.80;;;;;;;;;;5100486;27;94057;-64
2023/04/20 13:38:56;;;;;;;0.63;0.63;;;;;;;;;;5100830;27;93903;-63
2023/04/20 13:41:25;;;;;;;0.60;0.60;;;;;;;;;;5100724;27;92995;-64
2023/04/20 13:43:53;;;;;;;3.33;0.70;;;;;;;;;;5100924;27;92083;-63
2023/04/20 13:46:21;;;;;;;0.50;0.50;;;;;;;;;;5100588;27;94299;-63
2023/04/20 13:48:50;;;;;;;0.40;0.40;;;;;;;;;;5100424;27;93781;-63
2023/04/20 13:51:20;;;;;;;0.50;0.50;;;;;;;;;;5100788;27;92285;-64
2023/04/20 13:53:48;;;;;;;0.60;0.60;;;;;;;;;;5100940;27;91887;-64
2023/04/20 13:56:16;;;;;;;0.80;0.63;;;;;;;;;;5100674;27;94049;-64
2023/04/20 13:58:44;;;;;;;0.60;0.60;;;;;;;;;;5101243;27;93896;-63
2023/04/20 14:01:14;;;;;;;0.60;0.60;;;;;;;;;;5100977;27;91851;-63
2023/04/20 14:03:42;;;;;;;0.70;0.70;;;;;;;;;;5100247;27;91996;-64
2023/04/20 14:06:10;;;;;;;1.33;0.60;;;;;;;;;;5099969;27;95161;-64
2023/04/20 14:08:40;;;;;;;0.63;0.63;;;;;;;;;;5100257;27;94922;-64
2023/04/20 14:11:08;;;;;;;0.47;0.40;;;;;;;;;;5101448;27;92070;-63
2023/04/20 14:13:37;;;;;;;2.27;0.60;;;;;;;;;;5100610;27;92048;-64
2023/04/20 14:16:08;;;;;;;0.67;0.40;;;;;;;;;;5099322;27;94548;-63
2023/04/20 14:18:36;;;;;;;0.33;0.33;;;;;;;;;;5099799;27;93763;-64
2023/04/20 14:21:05;;;;;;;0.53;0.53;;;;;;;;;;5100361;27;92003;-64
2023/04/20 14:23:33;;;;;;;0.40;0.40;;;;;;;;;;5100563;27;91343;-64
2023/04/20 14:26:03;;;;;;;0.57;0.57;;;;;;;;;;5099891;27;94230;-64
2023/04/20 14:28:31;;;;;;;0.40;0.40;;;;;;;;;;5099815;27;92789;-64
2023/04/20 14:31:01;;;;;;;0.50;0.50;;;;;;;;;;5100137;27;92946;-64
2023/04/20 14:33:29;;;;;;;0.77;0.70;;;;;;;;;;5100328;27;92171;-64
2023/04/20 14:35:58;;;;;;;0.80;0.70;;;;;;;;;;5098977;27;93891;-64
2023/04/20 14:38:26;;;;;;;2.20;0.50;;;;;;;;;;5099180;27;93834;-63
2023/04/20 14:40:54;;;;;;;1.03;0.90;;;;;;;;;;5104222;27;91835;-64
2023/04/20 14:43:24;;;;;;;0.67;0.60;;;;;;;;;;5103789;27;91837;-64
2023/04/20 14:45:53;;;;;;;0.60;0.60;;;;;;;;;;5102930;27;94139;-64
2023/04/20 14:48:22;;;;;;;0.63;0.60;;;;;;;;;;5104018;27;93915;-64
2023/04/20 14:50:51;;;;;;;0.70;0.53;;;;;;;;;;5103970;27;91944;-64
2023/04/20 14:53:19;;;;;;;3.37;0.50;;;;;;;;;;5103510;27;92065;-64